Time,TemperatureF,DewpointF,PressureIn,WindDirection,WindDirectionDegrees,WindSpeedMPH,WindSpeedGustMPH,Humidity,HourlyPrecipIn,Conditions,Clouds,dailyrainin,SoftwareType,DateUTC
2013-06-11 00:01:00,81.6,77.4,30.08,East,98,1.0,2.0,87,0.00,,,0.00,Wunderground v.1.15,2013-06-11 04:01:00,
2013-06-11 00:02:00,81.6,77.4,30.08,ENE,75,0.0,2.0,87,0.00,,,0.00,Wunderground v.1.15,2013-06-11 04:02:00,
2013-06-11 00:05:00,81.6,77.4,30.08,ESE,113,0.0,2.0,87,0.00,,,0.00,Wunderground v.1.15,2013-06-11 04:05:00,
2013-06-11 00:06:00,81.6,77.4,30.08,ENE,77,1.0,2.0,87,0.00,,,0.00,Wunderground v.1.15,2013-06-11 04:06:00,
2013-06-11 00:11:00,81.6,77.4,30.08,East,85,0.0,1.0,87,0.00,,,0.00,Wunderground v.1.15,2013-06-11 04:11:00,
2013-06-11 00:16:00,81.6,77.7,30.09,ESE,112,0.0,2.0,88,0.00,,,0.00,Wunderground v.1.15,2013-06-11 04:16:00,
2013-06-11 00:22:00,81.6,77.7,30.09,East,98,1.0,1.0,88,0.00,,,0.00,Wunderground v.1.15,2013-06-11 04:22:00,
2013-06-11 00:28:00,81.5,77.6,30.09,East,85,2.0,2.0,88,0.00,,,0.00,Wunderground v.1.15,2013-06-11 04:28:00,
2013-06-11 00:33:00,81.5,77.6,30.09,East,94,0.0,3.0,88,0.00,,,0.00,Wunderground v.1.15,2013-06-11 04:33:00,
2013-06-11 00:38:00,81.5,77.6,30.09,East,81,0.0,3.0,88,0.00,,,0.00,Wunderground v.1.15,2013-06-11 04:38:00,
2013-06-11 00:43:00,81.5,77.6,30.08,ESE,105,1.0,2.0,88,0.00,,,0.00,Wunderground v.1.15,2013-06-11 04:43:00,
2013-06-11 00:49:00,81.5,77.9,30.09,ESE,111,0.0,2.0,89,0.00,,,0.00,Wunderground v.1.15,2013-06-11 04:49:00,
2013-06-11 00:54:00,81.5,77.9,30.08,ENE,77,0.0,1.0,89,0.00,,,0.00,Wunderground v.1.15,2013-06-11 04:54:00,
2013-06-11 01:00:00,81.6,78.0,30.08,ESE,107,1.0,1.0,89,0.00,,,0.00,Wunderground v.1.15,2013-06-11 05:00:00,
2013-06-11 01:06:00,81.6,78.0,30.08,East,82,0.0,3.0,89,0.00,,,0.00,Wunderground v.1.15,2013-06-11 05:06:00,
2013-06-11 01:12:00,81.6,78.0,30.08,East,86,0.0,3.0,89,0.00,,,0.00,Wunderground v.1.15,2013-06-11 05:12:00,
2013-06-11 01:18:00,81.5,77.9,30.08,East,88,0.0,3.0,89,0.00,,,0.00,Wunderground v.1.15,2013-06-11 05:18:00,
2013-06-11 01:24:00,81.4,77.8,30.07,East,81,0.0,1.0,89,0.00,,,0.00,Wunderground v.1.15,2013-06-11 05:24:00,
2013-06-11 01:30:00,81.3,77.7,30.07,NE,47,0.0,0.0,89,0.00,,,0.00,Wunderground v.1.15,2013-06-11 05:30:00,
2013-06-11 01:35:00,81.3,77.7,30.06,ENE,64,1.0,1.0,89,0.00,,,0.00,Wunderground v.1.15,2013-06-11 05:35:00,
2013-06-11 01:40:00,81.3,77.7,30.06,ENE,70,0.0,1.0,89,0.00,,,0.00,Wunderground v.1.15,2013-06-11 05:40:00,
2013-06-11 01:45:00,81.3,77.7,30.07,East,81,0.0,2.0,89,0.00,,,0.00,Wunderground v.1.15,2013-06-11 05:45:00,
2013-06-11 01:51:00,81.2,77.6,30.07,East,90,0.0,0.0,89,0.00,,,0.00,Wunderground v.1.15,2013-06-11 05:51:00,
2013-06-11 01:57:00,81.1,77.5,30.07,East,81,0.0,3.0,89,0.00,,,0.00,Wunderground v.1.15,2013-06-11 05:57:00,
2013-06-11 02:02:00,81.1,77.5,30.06,East,82,0.0,3.0,89,0.00,,,0.00,Wunderground v.1.15,2013-06-11 06:02:00,
2013-06-11 02:07:00,81.1,77.5,30.06,ESE,116,0.0,3.0,89,0.00,,,0.00,Wunderground v.1.15,2013-06-11 06:07:00,
2013-06-11 02:12:00,81.2,77.6,30.06,ESE,111,1.0,4.0,89,0.00,,,0.00,Wunderground v.1.15,2013-06-11 06:12:00,
2013-06-11 02:17:00,81.2,77.6,30.06,ENE,75,0.0,4.0,89,0.00,,,0.00,Wunderground v.1.15,2013-06-11 06:17:00,
2013-06-11 02:22:00,81.3,77.7,30.06,East,93,0.0,3.0,89,0.00,,,0.00,Wunderground v.1.15,2013-06-11 06:22:00,
2013-06-11 02:27:00,81.3,77.7,30.05,ESE,105,3.0,4.0,89,0.00,,,0.00,Wunderground v.1.15,2013-06-11 06:27:00,
2013-06-11 02:32:00,81.4,77.8,30.05,SE,139,0.0,6.0,89,0.00,,,0.00,Wunderground v.1.15,2013-06-11 06:32:00,
2013-06-11 02:37:00,81.2,77.3,30.05,South,179,0.0,6.0,88,0.00,,,0.00,Wunderground v.1.15,2013-06-11 06:37:00,
2013-06-11 02:42:00,81.1,76.9,30.05,West,271,0.0,1.0,87,0.00,,,0.00,Wunderground v.1.15,2013-06-11 06:42:00,
2013-06-11 02:47:00,80.9,76.3,30.04,SE,145,0.0,2.0,86,0.00,,,0.00,Wunderground v.1.15,2013-06-11 06:47:00,
2013-06-11 02:52:00,80.6,76.0,30.04,SE,127,0.0,0.0,86,0.00,,,0.00,Wunderground v.1.15,2013-06-11 06:52:00,
2013-06-11 02:57:00,80.3,75.7,30.04,SE,141,0.0,1.0,86,0.00,,,0.00,Wunderground v.1.15,2013-06-11 06:57:00,
2013-06-11 03:02:00,80.1,75.5,30.04,SE,139,0.0,1.0,86,0.00,,,0.00,Wunderground v.1.15,2013-06-11 07:02:00,
2013-06-11 03:07:00,79.9,75.3,30.03,ESE,111,0.0,1.0,86,0.00,,,0.00,Wunderground v.1.15,2013-06-11 07:07:00,
2013-06-11 03:12:00,79.9,75.7,30.03,ESE,118,0.0,0.0,87,0.00,,,0.00,Wunderground v.1.15,2013-06-11 07:12:00,
2013-06-11 03:17:00,79.8,75.6,30.03,ESE,105,0.0,1.0,87,0.00,,,0.00,Wunderground v.1.15,2013-06-11 07:17:00,
2013-06-11 03:22:00,79.8,75.9,30.03,ESE,103,0.0,1.0,88,0.00,,,0.00,Wunderground v.1.15,2013-06-11 07:22:00,
2013-06-11 03:27:00,79.7,75.8,30.03,ENE,68,0.0,1.0,88,0.00,,,0.00,Wunderground v.1.15,2013-06-11 07:27:00,
2013-06-11 03:32:00,79.6,76.1,30.03,ESE,107,0.0,3.0,89,0.00,,,0.00,Wunderground v.1.15,2013-06-11 07:32:00,
2013-06-11 03:37:00,79.7,76.2,30.03,ESE,108,0.0,3.0,89,0.00,,,0.00,Wunderground v.1.15,2013-06-11 07:37:00,
2013-06-11 03:42:00,79.7,76.2,30.03,East,94,0.0,3.0,89,0.00,,,0.00,Wunderground v.1.15,2013-06-11 07:42:00,
2013-06-11 03:47:00,79.7,76.2,30.04,East,100,0.0,3.0,89,0.00,,,0.00,Wunderground v.1.15,2013-06-11 07:47:00,
2013-06-11 03:52:00,79.7,76.2,30.04,East,101,0.0,0.0,89,0.00,,,0.00,Wunderground v.1.15,2013-06-11 07:52:00,
2013-06-11 03:57:00,79.7,76.2,30.04,East,92,0.0,1.0,89,0.00,,,0.00,Wunderground v.1.15,2013-06-11 07:57:00,
2013-06-11 04:02:00,79.7,76.2,30.04,ESE,108,0.0,1.0,89,0.00,,,0.00,Wunderground v.1.15,2013-06-11 08:02:00,
2013-06-11 04:07:00,79.7,76.2,30.04,ESE,108,0.0,1.0,89,0.00,,,0.00,Wunderground v.1.15,2013-06-11 08:07:00,
2013-06-11 04:12:00,79.6,76.1,30.04,ESE,108,0.0,0.0,89,0.00,,,0.00,Wunderground v.1.15,2013-06-11 08:12:00,
2013-06-11 04:17:00,79.5,76.3,30.04,East,96,0.0,0.0,90,0.00,,,0.00,Wunderground v.1.15,2013-06-11 08:17:00,
2013-06-11 04:22:00,79.5,76.3,30.04,East,101,0.0,1.0,90,0.00,,,0.00,Wunderground v.1.15,2013-06-11 08:22:00,
2013-06-11 04:27:00,79.5,76.3,30.04,SE,127,0.0,3.0,90,0.00,,,0.00,Wunderground v.1.15,2013-06-11 08:27:00,
2013-06-11 04:32:00,79.5,76.3,30.04,East,98,1.0,2.0,90,0.00,,,0.00,Wunderground v.1.15,2013-06-11 08:32:00,
2013-06-11 04:37:00,79.5,76.3,30.04,ESE,108,0.0,2.0,90,0.00,,,0.00,Wunderground v.1.15,2013-06-11 08:37:00,
2013-06-11 04:42:00,79.4,76.2,30.04,ESE,105,0.0,2.0,90,0.00,,,0.00,Wunderground v.1.15,2013-06-11 08:42:00,
2013-06-11 04:47:00,79.4,76.5,30.04,ESE,117,0.0,2.0,91,0.00,,,0.00,Wunderground v.1.15,2013-06-11 08:47:00,
2013-06-11 04:52:00,79.4,76.5,30.03,East,85,1.0,2.0,91,0.00,,,0.00,Wunderground v.1.15,2013-06-11 08:52:00,
2013-06-11 04:57:00,79.3,76.4,30.03,ESE,108,0.0,2.0,91,0.00,,,0.00,Wunderground v.1.15,2013-06-11 08:57:00,
2013-06-11 05:02:00,79.2,76.3,30.03,ESE,108,0.0,0.0,91,0.00,,,0.00,Wunderground v.1.15,2013-06-11 09:02:00,
2013-06-11 05:07:00,79.2,76.3,30.03,ENE,74,0.0,2.0,91,0.00,,,0.00,Wunderground v.1.15,2013-06-11 09:07:00,
2013-06-11 05:12:00,79.2,76.3,30.03,ESE,103,0.0,0.0,91,0.00,,,0.00,Wunderground v.1.15,2013-06-11 09:12:00,
2013-06-11 05:17:00,79.1,76.6,30.03,ESE,106,0.0,1.0,92,0.00,,,0.00,Wunderground v.1.15,2013-06-11 09:17:00,
2013-06-11 05:22:00,79.0,76.5,30.03,ESE,106,0.0,0.0,92,0.00,,,0.00,Wunderground v.1.15,2013-06-11 09:22:00,
2013-06-11 05:27:00,79.0,76.5,30.04,ESE,114,0.0,0.0,92,0.00,,,0.00,Wunderground v.1.15,2013-06-11 09:27:00,
2013-06-11 05:32:00,78.9,76.4,30.04,ESE,114,0.0,0.0,92,0.00,,,0.00,Wunderground v.1.15,2013-06-11 09:32:00,
2013-06-11 05:37:00,78.7,76.2,30.04,ESE,115,0.0,0.0,92,0.00,,,0.00,Wunderground v.1.15,2013-06-11 09:37:00,
2013-06-11 05:42:00,78.7,76.2,30.04,ESE,116,0.0,0.0,92,0.00,,,0.00,Wunderground v.1.15,2013-06-11 09:42:00,
2013-06-11 05:47:00,78.6,76.1,30.04,ESE,116,0.0,0.0,92,0.00,,,0.00,Wunderground v.1.15,2013-06-11 09:47:00,
2013-06-11 05:52:00,78.5,76.0,30.04,ESE,115,0.0,0.0,92,0.00,,,0.00,Wunderground v.1.15,2013-06-11 09:52:00,
2013-06-11 05:57:00,78.4,75.9,30.04,ESE,115,0.0,0.0,92,0.00,,,0.00,Wunderground v.1.15,2013-06-11 09:57:00,
2013-06-11 06:02:00,78.3,76.1,30.05,ESE,116,0.0,0.0,93,0.00,,,0.00,Wunderground v.1.15,2013-06-11 10:02:00,
2013-06-11 06:07:00,78.3,75.8,30.05,ESE,116,0.0,0.0,92,0.00,,,0.00,Wunderground v.1.15,2013-06-11 10:07:00,
2013-06-11 06:12:00,78.2,75.7,30.05,ESE,116,0.0,0.0,92,0.00,,,0.00,Wunderground v.1.15,2013-06-11 10:12:00,
2013-06-11 06:17:00,78.1,75.6,30.05,ESE,114,0.0,0.0,92,0.00,,,0.00,Wunderground v.1.15,2013-06-11 10:17:00,
2013-06-11 06:22:00,78.0,75.5,30.05,ESE,114,0.0,0.0,92,0.00,,,0.00,Wunderground v.1.15,2013-06-11 10:22:00,
2013-06-11 06:27:00,78.0,75.5,30.05,ESE,115,0.0,0.0,92,0.00,,,0.00,Wunderground v.1.15,2013-06-11 10:27:00,
2013-06-11 06:32:00,77.8,75.3,30.05,ESE,114,0.0,0.0,92,0.00,,,0.00,Wunderground v.1.15,2013-06-11 10:32:00,
2013-06-11 06:37:00,77.8,75.6,30.05,ESE,115,0.0,0.0,93,0.00,,,0.00,Wunderground v.1.15,2013-06-11 10:37:00,
2013-06-11 06:42:00,77.8,75.6,30.05,ESE,115,0.0,0.0,93,0.00,,,0.00,Wunderground v.1.15,2013-06-11 10:42:00,
2013-06-11 06:47:00,77.9,75.7,30.05,ESE,115,0.0,0.0,93,0.00,,,0.00,Wunderground v.1.15,2013-06-11 10:47:00,
2013-06-11 06:52:00,78.0,75.8,30.05,ESE,114,0.0,0.0,93,0.00,,,0.00,Wunderground v.1.15,2013-06-11 10:52:00,
2013-06-11 06:58:00,78.2,76.0,30.05,ESE,115,0.0,0.0,93,0.00,,,0.00,Wunderground v.1.15,2013-06-11 10:58:00,
2013-06-11 07:03:00,78.3,76.1,30.05,ESE,115,0.0,0.0,93,0.00,,,0.00,Wunderground v.1.15,2013-06-11 11:03:00,
2013-06-11 07:08:00,78.4,76.2,30.06,ESE,114,0.0,0.0,93,0.00,,,0.00,Wunderground v.1.15,2013-06-11 11:08:00,
2013-06-11 07:13:00,78.6,76.4,30.06,ESE,115,0.0,0.0,93,0.00,,,0.00,Wunderground v.1.15,2013-06-11 11:13:00,
2013-06-11 07:18:00,78.8,76.6,30.06,ESE,114,0.0,0.0,93,0.00,,,0.00,Wunderground v.1.15,2013-06-11 11:18:00,
2013-06-11 07:23:00,79.1,76.9,30.06,ESE,115,0.0,0.0,93,0.00,,,0.00,Wunderground v.1.15,2013-06-11 11:23:00,
2013-06-11 07:28:00,79.4,77.2,30.06,ESE,115,0.0,0.0,93,0.00,,,0.00,Wunderground v.1.15,2013-06-11 11:28:00,
2013-06-11 07:33:00,80.0,77.8,30.06,ESE,113,0.0,0.0,93,0.00,,,0.00,Wunderground v.1.15,2013-06-11 11:33:00,
2013-06-11 07:38:00,80.8,78.3,30.06,ESE,113,0.0,0.0,92,0.00,,,0.00,Wunderground v.1.15,2013-06-11 11:38:00,
2013-06-11 07:43:00,81.9,79.0,30.06,ESE,113,0.0,0.0,91,0.00,,,0.00,Wunderground v.1.15,2013-06-11 11:43:00,
2013-06-11 07:49:00,83.1,79.5,30.06,ESE,113,0.0,0.0,89,0.00,,,0.00,Wunderground v.1.15,2013-06-11 11:49:00,
2013-06-11 07:54:00,84.1,79.5,30.06,ESE,111,0.0,0.0,86,0.00,,,0.00,Wunderground v.1.15,2013-06-11 11:54:00,
2013-06-11 07:59:00,84.5,79.1,30.07,East,99,0.0,1.0,84,0.00,,,0.00,Wunderground v.1.15,2013-06-11 11:59:00,
2013-06-11 08:04:00,84.3,78.9,30.07,ESE,111,0.0,3.0,84,0.00,,,0.00,Wunderground v.1.15,2013-06-11 12:04:00,
2013-06-11 08:09:00,84.1,78.7,30.08,SW,215,0.0,3.0,84,0.00,,,0.00,Wunderground v.1.15,2013-06-11 12:09:00,
2013-06-11 08:14:00,84.2,79.2,30.08,South,174,0.0,0.0,85,0.00,,,0.00,Wunderground v.1.15,2013-06-11 12:14:00,
2013-06-11 08:19:00,84.4,79.0,30.08,ESE,116,0.0,1.0,84,0.00,,,0.00,Wunderground v.1.15,2013-06-11 12:19:00,
2013-06-11 08:24:00,84.5,79.1,30.08,ESE,104,0.0,3.0,84,0.00,,,0.00,Wunderground v.1.15,2013-06-11 12:24:00,
2013-06-11 08:29:00,84.7,79.3,30.08,ESE,118,1.0,3.0,84,0.00,,,0.00,Wunderground v.1.15,2013-06-11 12:29:00,
2013-06-11 08:34:00,85.0,78.9,30.08,ESE,112,2.0,3.0,82,0.00,,,0.00,Wunderground v.1.15,2013-06-11 12:34:00,
2013-06-11 08:39:00,85.5,79.0,30.08,East,84,0.0,3.0,81,0.00,,,0.00,Wunderground v.1.15,2013-06-11 12:39:00,
2013-06-11 08:44:00,85.6,79.1,30.08,ESE,108,0.0,5.0,81,0.00,,,0.00,Wunderground v.1.15,2013-06-11 12:44:00,
2013-06-11 08:49:00,85.7,78.8,30.08,ENE,74,0.0,5.0,80,0.00,,,0.00,Wunderground v.1.15,2013-06-11 12:49:00,
2013-06-11 08:54:00,85.9,79.0,30.08,ENE,65,0.0,4.0,80,0.00,,,0.00,Wunderground v.1.15,2013-06-11 12:54:00,
2013-06-11 08:59:00,86.5,79.2,30.08,SSE,151,0.0,4.0,79,0.00,,,0.00,Wunderground v.1.15,2013-06-11 12:59:00,
2013-06-11 09:04:00,86.5,78.8,30.08,East,98,0.0,2.0,78,0.00,,,0.00,Wunderground v.1.15,2013-06-11 13:04:00,
2013-06-11 09:09:00,86.6,78.9,30.08,East,100,3.0,4.0,78,0.00,,,0.00,Wunderground v.1.15,2013-06-11 13:09:00,
2013-06-11 09:14:00,86.0,78.7,30.08,SE,143,0.0,5.0,79,0.00,,,0.00,Wunderground v.1.15,2013-06-11 13:14:00,
2013-06-11 09:19:00,85.1,78.2,30.08,East,86,1.0,5.0,80,0.00,,,0.00,Wunderground v.1.15,2013-06-11 13:19:00,
2013-06-11 09:24:00,84.9,78.8,30.08,ENE,63,0.0,4.0,82,0.00,,,0.00,Wunderground v.1.15,2013-06-11 13:24:00,
2013-06-11 09:29:00,85.2,78.7,30.08,East,87,1.0,5.0,81,0.00,,,0.00,Wunderground v.1.15,2013-06-11 13:29:00,
2013-06-11 09:34:00,85.7,78.8,30.08,East,82,0.0,4.0,80,0.00,,,0.00,Wunderground v.1.15,2013-06-11 13:34:00,
2013-06-11 09:39:00,86.2,79.3,30.09,ESE,106,1.0,4.0,80,0.00,,,0.00,Wunderground v.1.15,2013-06-11 13:39:00,
2013-06-11 09:44:00,86.2,78.9,30.09,NE,53,0.0,7.0,79,0.00,,,0.00,Wunderground v.1.15,2013-06-11 13:44:00,
2013-06-11 09:49:00,86.1,77.6,30.09,SE,146,0.0,9.0,76,0.00,,,0.00,Wunderground v.1.15,2013-06-11 13:49:00,
2013-06-11 09:54:00,86.4,77.1,30.09,SE,132,0.0,3.0,74,0.00,,,0.00,Wunderground v.1.15,2013-06-11 13:54:00,
2013-06-11 09:59:00,87.0,78.5,30.09,ESE,119,0.0,8.0,76,0.00,,,0.00,Wunderground v.1.15,2013-06-11 13:59:00,
2013-06-11 10:04:00,86.8,77.5,30.09,ESE,109,6.0,10.0,74,0.00,,,0.00,Wunderground v.1.15,2013-06-11 14:04:00,
2013-06-11 10:09:00,87.2,77.1,30.09,East,96,3.0,10.0,72,0.00,,,0.00,Wunderground v.1.15,2013-06-11 14:09:00,
2013-06-11 10:14:00,86.9,77.6,30.09,East,90,10.0,10.0,74,0.00,,,0.00,Wunderground v.1.15,2013-06-11 14:14:00,
2013-06-11 10:19:00,86.4,77.5,30.09,ESE,111,4.0,10.0,75,0.00,,,0.00,Wunderground v.1.15,2013-06-11 14:19:00,
2013-06-11 10:24:00,86.2,78.5,30.10,NE,56,2.0,10.0,78,0.00,,,0.00,Wunderground v.1.15,2013-06-11 14:24:00,
2013-06-11 10:29:00,85.4,77.8,30.10,SSE,150,1.0,15.0,78,0.00,,,0.00,Wunderground v.1.15,2013-06-11 14:29:00,
2013-06-11 10:34:00,84.7,77.5,30.10,SE,139,1.0,9.0,79,0.00,,,0.00,Wunderground v.1.15,2013-06-11 14:34:00,
2013-06-11 10:39:00,84.5,77.6,30.10,East,96,0.0,9.0,80,0.00,,,0.00,Wunderground v.1.15,2013-06-11 14:39:00,
2013-06-11 10:44:00,84.3,77.5,30.10,SE,145,4.0,9.0,80,0.00,,,0.00,Wunderground v.1.15,2013-06-11 14:44:00,
2013-06-11 10:49:00,84.1,76.9,30.10,WSW,255,0.0,9.0,79,0.00,,,0.00,Wunderground v.1.15,2013-06-11 14:49:00,
2013-06-11 10:54:00,83.9,76.7,30.10,East,94,1.0,6.0,79,0.00,,,0.00,Wunderground v.1.15,2013-06-11 14:54:00,
2013-06-11 10:59:00,83.6,76.4,30.09,East,90,0.0,6.0,79,0.00,,,0.00,Wunderground v.1.15,2013-06-11 14:59:00,
2013-06-11 11:04:00,83.5,75.9,30.09,SW,222,0.0,3.0,78,0.00,,,0.00,Wunderground v.1.15,2013-06-11 15:04:00,
2013-06-11 11:09:00,83.4,76.2,30.10,East,101,0.0,4.0,79,0.00,,,0.00,Wunderground v.1.15,2013-06-11 15:09:00,
2013-06-11 11:14:00,84.0,76.8,30.10,SSW,196,0.0,1.0,79,0.00,,,0.00,Wunderground v.1.15,2013-06-11 15:14:00,
2013-06-11 11:19:00,84.8,76.8,30.11,SW,235,0.0,1.0,77,0.00,,,0.00,Wunderground v.1.15,2013-06-11 15:19:00,
2013-06-11 11:24:00,85.2,77.2,30.11,South,174,0.0,4.0,77,0.00,,,0.00,Wunderground v.1.15,2013-06-11 15:24:00,
2013-06-11 11:29:00,85.2,76.8,30.11,ESE,110,1.0,4.0,76,0.00,,,0.00,Wunderground v.1.15,2013-06-11 15:29:00,
2013-06-11 11:34:00,85.2,76.4,30.10,East,100,2.0,4.0,75,0.00,,,0.00,Wunderground v.1.15,2013-06-11 15:34:00,
2013-06-11 11:39:00,84.8,76.4,30.10,NE,36,0.0,4.0,76,0.00,,,0.00,Wunderground v.1.15,2013-06-11 15:39:00,
2013-06-11 11:44:00,84.6,76.2,30.10,SSW,193,0.0,1.0,76,0.00,,,0.00,Wunderground v.1.15,2013-06-11 15:44:00,
2013-06-11 11:49:00,84.5,76.1,30.10,SW,232,0.0,1.0,76,0.00,,,0.00,Wunderground v.1.15,2013-06-11 15:49:00,
2013-06-11 11:54:00,84.5,76.1,30.09,East,85,0.0,1.0,76,0.00,,,0.00,Wunderground v.1.15,2013-06-11 15:54:00,
2013-06-11 11:59:00,84.4,76.0,30.09,East,90,0.0,3.0,76,0.00,,,0.00,Wunderground v.1.15,2013-06-11 15:59:00,
2013-06-11 12:04:00,84.4,75.6,30.09,SSE,158,1.0,2.0,75,0.00,,,0.00,Wunderground v.1.15,2013-06-11 16:04:00,
2013-06-11 12:09:00,84.4,75.6,30.09,SSE,148,0.0,3.0,75,0.00,,,0.00,Wunderground v.1.15,2013-06-11 16:09:00,
2013-06-11 12:14:00,84.3,75.1,30.09,South,174,0.0,2.0,74,0.00,,,0.00,Wunderground v.1.15,2013-06-11 16:14:00,
2013-06-11 12:19:00,84.2,75.0,30.09,SSE,150,0.0,3.0,74,0.00,,,0.00,Wunderground v.1.15,2013-06-11 16:19:00,
2013-06-11 12:24:00,84.3,75.5,30.09,ESE,112,0.0,1.0,75,0.00,,,0.00,Wunderground v.1.15,2013-06-11 16:24:00,
2013-06-11 12:29:00,84.3,75.1,30.09,ESE,111,0.0,2.0,74,0.00,,,0.00,Wunderground v.1.15,2013-06-11 16:29:00,
2013-06-11 12:34:00,84.3,75.1,30.10,SW,219,0.0,1.0,74,0.00,,,0.00,Wunderground v.1.15,2013-06-11 16:34:00,
2013-06-11 12:39:00,84.4,75.6,30.09,ENE,68,0.0,2.0,75,0.00,,,0.00,Wunderground v.1.15,2013-06-11 16:39:00,
2013-06-11 12:44:00,84.3,75.5,30.09,SE,127,0.0,2.0,75,0.00,,,0.00,Wunderground v.1.15,2013-06-11 16:44:00,
2013-06-11 12:49:00,84.2,75.8,30.09,ESE,105,0.0,2.0,76,0.00,,,0.00,Wunderground v.1.15,2013-06-11 16:49:00,
2013-06-11 12:55:00,84.0,75.2,30.09,ESE,105,0.0,3.0,75,0.00,,,0.00,Wunderground v.1.15,2013-06-11 16:55:00,
2013-06-11 13:00:00,84.0,75.2,30.09,East,88,0.0,0.0,75,0.00,,,0.00,Wunderground v.1.15,2013-06-11 17:00:00,
2013-06-11 13:05:00,84.1,74.1,30.09,SSE,157,0.0,4.0,72,0.00,,,0.00,Wunderground v.1.15,2013-06-11 17:05:00,
2013-06-11 13:10:00,84.2,74.2,30.08,SW,221,0.0,1.0,72,0.00,,,0.00,Wunderground v.1.15,2013-06-11 17:10:00,
2013-06-11 13:15:00,84.3,74.7,30.08,ESE,103,0.0,2.0,73,0.00,,,0.00,Wunderground v.1.15,2013-06-11 17:15:00,
2013-06-11 13:20:00,84.5,74.1,30.08,East,97,0.0,1.0,71,0.00,,,0.00,Wunderground v.1.15,2013-06-11 17:20:00,
2013-06-11 13:25:00,84.5,74.5,30.08,East,86,0.0,5.0,72,0.00,,,0.00,Wunderground v.1.15,2013-06-11 17:25:00,
2013-06-11 13:30:00,84.6,74.6,30.08,SE,125,0.0,1.0,72,0.00,,,0.00,Wunderground v.1.15,2013-06-11 17:30:00,
2013-06-11 13:35:00,84.8,74.3,30.08,ENE,72,3.0,4.0,71,0.00,,,0.00,Wunderground v.1.15,2013-06-11 17:35:00,
2013-06-11 13:40:00,85.0,74.1,30.08,ESE,102,1.0,2.0,70,0.00,,,0.00,Wunderground v.1.15,2013-06-11 17:40:00,
2013-06-11 13:45:00,85.6,74.7,30.08,SSW,193,3.0,4.0,70,0.00,,,0.00,Wunderground v.1.15,2013-06-11 17:45:00,
2013-06-11 13:50:00,85.9,75.0,30.07,SSE,147,1.0,1.0,70,0.00,,,0.00,Wunderground v.1.15,2013-06-11 17:50:00,
2013-06-11 13:55:00,86.2,75.7,30.07,ESE,111,0.0,4.0,71,0.00,,,0.00,Wunderground v.1.15,2013-06-11 17:55:00,
2013-06-11 14:00:00,86.1,75.6,30.07,WSW,239,1.0,1.0,71,0.00,,,0.00,Wunderground v.1.15,2013-06-11 18:00:00,
2013-06-11 14:05:00,86.3,77.0,30.07,ESE,119,0.0,5.0,74,0.00,,,0.00,Wunderground v.1.15,2013-06-11 18:05:00,
2013-06-11 14:10:00,86.5,76.8,30.07,SE,142,2.0,3.0,73,0.00,,,0.00,Wunderground v.1.15,2013-06-11 18:10:00,
2013-06-11 14:15:00,86.5,76.8,30.07,ESE,108,2.0,7.0,73,0.00,,,0.00,Wunderground v.1.15,2013-06-11 18:15:00,
2013-06-11 14:20:00,86.8,77.5,30.07,ESE,114,2.0,3.0,74,0.00,,,0.00,Wunderground v.1.15,2013-06-11 18:20:00,
2013-06-11 14:25:00,87.0,77.3,30.06,East,89,1.0,5.0,73,0.00,,,0.00,Wunderground v.1.15,2013-06-11 18:25:00,
2013-06-11 14:30:00,87.4,77.7,30.06,SE,127,1.0,2.0,73,0.00,,,0.00,Wunderground v.1.15,2013-06-11 18:30:00,
2013-06-11 14:35:00,87.6,77.5,30.06,SW,228,3.0,4.0,72,0.00,,,0.00,Wunderground v.1.15,2013-06-11 18:35:00,
2013-06-11 14:40:00,87.8,77.6,30.06,SSW,203,1.0,3.0,72,0.00,,,0.00,Wunderground v.1.15,2013-06-11 18:40:00,
2013-06-11 14:45:00,88.4,77.4,30.06,South,170,1.0,4.0,70,0.00,,,0.00,Wunderground v.1.15,2013-06-11 18:45:00,
2013-06-11 14:50:00,88.5,77.9,30.05,South,180,0.0,1.0,71,0.00,,,0.00,Wunderground v.1.15,2013-06-11 18:50:00,
2013-06-11 14:55:00,88.4,77.4,30.05,ESE,104,0.0,5.0,70,0.00,,,0.00,Wunderground v.1.15,2013-06-11 18:55:00,
2013-06-11 15:00:00,88.4,77.4,30.05,NE,36,0.0,1.0,70,0.00,,,0.00,Wunderground v.1.15,2013-06-11 19:00:00,
2013-06-11 15:05:00,88.5,77.0,30.05,SE,142,0.0,3.0,69,0.00,,,0.00,Wunderground v.1.15,2013-06-11 19:05:00,
2013-06-11 15:10:00,88.4,77.8,30.05,ESE,113,1.0,1.0,71,0.00,,,0.00,Wunderground v.1.15,2013-06-11 19:10:00,
2013-06-11 15:15:00,88.5,77.5,30.05,East,89,0.0,9.0,70,0.00,,,0.00,Wunderground v.1.15,2013-06-11 19:15:00,
2013-06-11 15:20:00,88.3,77.3,30.05,ESE,111,3.0,3.0,70,0.00,,,0.00,Wunderground v.1.15,2013-06-11 19:20:00,
2013-06-11 15:25:00,88.1,77.1,30.05,East,98,5.0,7.0,70,0.00,,,0.00,Wunderground v.1.15,2013-06-11 19:25:00,
2013-06-11 15:30:00,87.9,76.9,30.05,ESE,122,2.0,3.0,70,0.00,,,0.00,Wunderground v.1.15,2013-06-11 19:30:00,
2013-06-11 15:35:00,87.8,77.2,30.05,SSW,200,1.0,4.0,71,0.00,,,0.00,Wunderground v.1.15,2013-06-11 19:35:00,
2013-06-11 15:40:00,87.4,76.4,30.05,East,86,0.0,4.0,70,0.00,,,0.00,Wunderground v.1.15,2013-06-11 19:40:00,
2013-06-11 15:45:00,87.4,77.3,30.05,SW,218,0.0,5.0,72,0.00,,,0.00,Wunderground v.1.15,2013-06-11 19:45:00,
2013-06-11 15:50:00,87.8,77.2,30.04,East,86,0.0,1.0,71,0.00,,,0.00,Wunderground v.1.15,2013-06-11 19:50:00,
2013-06-11 15:56:00,87.8,77.2,30.04,East,100,0.0,8.0,71,0.00,,,0.00,Wunderground v.1.15,2013-06-11 19:56:00,
2013-06-11 16:01:00,87.7,76.7,30.04,ESE,111,0.0,4.0,70,0.00,,,0.00,Wunderground v.1.15,2013-06-11 20:01:00,
2013-06-11 16:06:00,87.8,77.2,30.04,ENE,69,0.0,6.0,71,0.00,,,0.00,Wunderground v.1.15,2013-06-11 20:06:00,
2013-06-11 16:11:00,87.9,77.3,30.04,ESE,109,0.0,5.0,71,0.00,,,0.00,Wunderground v.1.15,2013-06-11 20:11:00,
2013-06-11 16:16:00,87.9,76.9,30.04,East,87,0.0,5.0,70,0.00,,,0.00,Wunderground v.1.15,2013-06-11 20:16:00,
2013-06-11 16:21:00,87.7,76.7,30.03,ESE,108,2.0,2.0,70,0.00,,,0.00,Wunderground v.1.15,2013-06-11 20:21:00,
2013-06-11 16:26:00,87.9,76.5,30.03,SSE,150,0.0,4.0,69,0.00,,,0.00,Wunderground v.1.15,2013-06-11 20:26:00,
2013-06-11 16:31:00,88.3,77.3,30.03,SE,132,0.0,1.0,70,0.00,,,0.00,Wunderground v.1.15,2013-06-11 20:31:00,
2013-06-11 16:36:00,89.2,77.7,30.03,ESE,106,2.0,6.0,69,0.00,,,0.00,Wunderground v.1.15,2013-06-11 20:36:00,
2013-06-11 16:41:00,89.5,78.0,30.03,ESE,111,0.0,1.0,69,0.00,,,0.00,Wunderground v.1.15,2013-06-11 20:41:00,
2013-06-11 16:46:00,89.6,77.6,30.03,South,176,0.0,4.0,68,0.00,,,0.00,Wunderground v.1.15,2013-06-11 20:46:00,
2013-06-11 16:51:00,89.7,78.2,30.02,East,101,0.0,1.0,69,0.00,,,0.00,Wunderground v.1.15,2013-06-11 20:51:00,
2013-06-11 16:56:00,89.7,78.2,30.03,NE,43,4.0,5.0,69,0.00,,,0.00,Wunderground v.1.15,2013-06-11 20:56:00,
2013-06-11 17:01:00,88.5,77.0,30.03,East,97,3.0,4.0,69,0.00,,,0.00,Wunderground v.1.15,2013-06-11 21:01:00,
2013-06-11 17:06:00,87.7,77.1,30.02,ESE,111,0.0,6.0,71,0.00,,,0.00,Wunderground v.1.15,2013-06-11 21:06:00,
2013-06-11 17:11:00,87.6,77.0,30.02,East,101,0.0,4.0,71,0.00,,,0.00,Wunderground v.1.15,2013-06-11 21:11:00,
2013-06-11 17:16:00,87.3,77.2,30.02,East,79,3.0,5.0,72,0.00,,,0.00,Wunderground v.1.15,2013-06-11 21:16:00,
2013-06-11 17:21:00,86.9,76.8,30.02,East,96,2.0,8.0,72,0.00,,,0.00,Wunderground v.1.15,2013-06-11 21:21:00,
2013-06-11 17:26:00,86.4,76.7,30.03,East,81,3.0,8.0,73,0.00,,,0.00,Wunderground v.1.15,2013-06-11 21:26:00,
2013-06-11 17:31:00,86.2,76.5,30.02,East,85,6.0,6.0,73,0.00,,,0.00,Wunderground v.1.15,2013-06-11 21:31:00,
2013-06-11 17:37:00,86.1,76.4,30.02,ESE,114,3.0,6.0,73,0.00,,,0.00,Wunderground v.1.15,2013-06-11 21:37:00,
2013-06-11 17:42:00,86.1,76.4,30.02,East,87,5.0,6.0,73,0.00,,,0.00,Wunderground v.1.15,2013-06-11 21:42:00,
2013-06-11 17:47:00,86.2,76.5,30.02,ENE,77,0.0,7.0,73,0.00,,,0.00,Wunderground v.1.15,2013-06-11 21:47:00,
2013-06-11 17:52:00,86.2,77.3,30.03,ESE,121,0.0,2.0,75,0.00,,,0.00,Wunderground v.1.15,2013-06-11 21:52:00,
2013-06-11 17:57:00,86.2,76.5,30.03,ENE,69,5.0,6.0,73,0.00,,,0.00,Wunderground v.1.15,2013-06-11 21:57:00,
2013-06-11 18:02:00,85.8,77.0,30.03,ENE,60,0.0,2.0,75,0.00,,,0.00,Wunderground v.1.15,2013-06-11 22:02:00,
2013-06-11 18:07:00,85.6,76.8,30.04,ESE,102,0.0,3.0,75,0.00,,,0.00,Wunderground v.1.15,2013-06-11 22:07:00,
2013-06-11 18:12:00,85.4,76.6,30.04,ENE,60,2.0,4.0,75,0.00,,,0.00,Wunderground v.1.15,2013-06-11 22:12:00,
2013-06-11 18:17:00,85.1,76.3,30.04,SE,136,0.0,4.0,75,0.00,,,0.00,Wunderground v.1.15,2013-06-11 22:17:00,
2013-06-11 18:22:00,84.9,76.5,30.04,East,94,4.0,5.0,76,0.00,,,0.00,Wunderground v.1.15,2013-06-11 22:22:00,
2013-06-11 18:27:00,84.7,76.3,30.04,East,80,0.0,6.0,76,0.00,,,0.00,Wunderground v.1.15,2013-06-11 22:27:00,
2013-06-11 18:32:00,84.5,76.5,30.05,East,94,6.0,6.0,77,0.00,,,0.00,Wunderground v.1.15,2013-06-11 22:32:00,
2013-06-11 18:37:00,84.4,76.8,30.05,ENE,74,2.0,8.0,78,0.00,,,0.00,Wunderground v.1.15,2013-06-11 22:37:00,
2013-06-11 18:42:00,84.3,76.7,30.05,East,95,0.0,3.0,78,0.00,,,0.00,Wunderground v.1.15,2013-06-11 22:42:00,
2013-06-11 18:47:00,84.2,76.6,30.05,East,80,3.0,6.0,78,0.00,,,0.00,Wunderground v.1.15,2013-06-11 22:47:00,
2013-06-11 18:52:00,84.1,76.9,30.05,ESE,111,0.0,3.0,79,0.00,,,0.00,Wunderground v.1.15,2013-06-11 22:52:00,
2013-06-11 18:57:00,84.0,76.8,30.05,ENE,77,0.0,4.0,79,0.00,,,0.00,Wunderground v.1.15,2013-06-11 22:57:00,
2013-06-11 19:02:00,83.9,76.7,30.05,ESE,105,2.0,2.0,79,0.00,,,0.00,Wunderground v.1.15,2013-06-11 23:02:00,
2013-06-11 19:07:00,83.8,76.6,30.05,ESE,121,1.0,4.0,79,0.00,,,0.00,Wunderground v.1.15,2013-06-11 23:07:00,
2013-06-11 19:12:00,83.7,76.9,30.05,ESE,112,0.0,2.0,80,0.00,,,0.00,Wunderground v.1.15,2013-06-11 23:12:00,
2013-06-11 19:17:00,83.7,76.9,30.06,East,82,0.0,2.0,80,0.00,,,0.00,Wunderground v.1.15,2013-06-11 23:17:00,
2013-06-11 19:22:00,83.6,77.1,30.05,ENE,75,0.0,2.0,81,0.00,,,0.00,Wunderground v.1.15,2013-06-11 23:22:00,
2013-06-11 19:27:00,83.5,77.1,30.05,East,84,2.0,3.0,81,0.00,,,0.00,Wunderground v.1.15,2013-06-11 23:27:00,
2013-06-11 19:32:00,83.3,77.2,30.05,ESE,111,0.0,3.0,82,0.00,,,0.00,Wunderground v.1.15,2013-06-11 23:32:00,
2013-06-11 19:37:00,83.3,77.2,30.06,ENE,75,0.0,4.0,82,0.00,,,0.00,Wunderground v.1.15,2013-06-11 23:37:00,
2013-06-11 19:42:00,83.2,77.1,30.06,East,86,0.0,3.0,82,0.00,,,0.00,Wunderground v.1.15,2013-06-11 23:42:00,
2013-06-11 19:47:00,83.2,77.1,30.06,East,86,1.0,4.0,82,0.00,,,0.00,Wunderground v.1.15,2013-06-11 23:47:00,
2013-06-11 19:52:00,83.1,77.4,30.06,East,89,3.0,4.0,83,0.00,,,0.00,Wunderground v.1.15,2013-06-11 23:52:00,
2013-06-11 19:57:00,83.0,77.3,30.06,East,101,0.0,4.0,83,0.00,,,0.00,Wunderground v.1.15,2013-06-11 23:57:00,
2013-06-11 20:02:00,82.9,77.2,30.05,East,101,0.0,3.0,83,0.00,,,0.00,Wunderground v.1.15,2013-06-12 00:02:00,
2013-06-11 20:07:00,82.8,77.1,30.06,SE,141,4.0,6.0,83,0.00,,,0.00,Wunderground v.1.15,2013-06-12 00:07:00,
2013-06-11 20:12:00,82.8,77.5,30.06,East,84,2.0,5.0,84,0.00,,,0.00,Wunderground v.1.15,2013-06-12 00:12:00,
2013-06-11 20:17:00,82.8,77.5,30.05,East,94,0.0,5.0,84,0.00,,,0.00,Wunderground v.1.15,2013-06-12 00:17:00,
2013-06-11 20:22:00,82.7,77.4,30.05,East,90,0.0,5.0,84,0.00,,,0.00,Wunderground v.1.15,2013-06-12 00:22:00,
2013-06-11 20:27:00,82.7,77.7,30.05,East,82,0.0,5.0,85,0.00,,,0.00,Wunderground v.1.15,2013-06-12 00:27:00,
2013-06-11 20:32:00,82.5,77.5,30.05,East,100,3.0,5.0,85,0.00,,,0.00,Wunderground v.1.15,2013-06-12 00:32:00,
2013-06-11 20:37:00,82.5,77.5,30.05,East,82,3.0,6.0,85,0.00,,,0.00,Wunderground v.1.15,2013-06-12 00:37:00,
2013-06-11 20:42:00,82.5,77.5,30.05,East,100,0.0,2.0,85,0.00,,,0.00,Wunderground v.1.15,2013-06-12 00:42:00,
2013-06-11 20:48:00,82.4,77.8,30.05,East,96,0.0,5.0,86,0.00,,,0.00,Wunderground v.1.15,2013-06-12 00:48:00,
2013-06-11 20:53:00,82.4,77.8,30.05,East,89,3.0,4.0,86,0.00,,,0.00,Wunderground v.1.15,2013-06-12 00:53:00,
2013-06-11 20:58:00,82.4,77.8,30.05,East,84,1.0,4.0,86,0.00,,,0.00,Wunderground v.1.15,2013-06-12 00:58:00,
2013-06-11 21:03:00,82.3,77.7,30.05,East,94,0.0,3.0,86,0.00,,,0.00,Wunderground v.1.15,2013-06-12 01:03:00,
2013-06-11 21:08:00,82.3,77.3,30.05,ESE,112,0.0,3.0,85,0.00,,,0.00,Wunderground v.1.15,2013-06-12 01:08:00,
2013-06-11 21:13:00,82.2,77.2,30.05,East,82,0.0,5.0,85,0.00,,,0.00,Wunderground v.1.15,2013-06-12 01:13:00,
2013-06-11 21:18:00,82.2,77.6,30.06,SE,127,0.0,6.0,86,0.00,,,0.00,Wunderground v.1.15,2013-06-12 01:18:00,
2013-06-11 21:23:00,82.2,77.6,30.06,ESE,121,1.0,2.0,86,0.00,,,0.00,Wunderground v.1.15,2013-06-12 01:23:00,
2013-06-11 21:28:00,82.2,77.6,30.06,ESE,121,3.0,4.0,86,0.00,,,0.00,Wunderground v.1.15,2013-06-12 01:28:00,
2013-06-11 21:33:00,82.3,77.7,30.06,East,87,1.0,4.0,86,0.00,,,0.00,Wunderground v.1.15,2013-06-12 01:33:00,
2013-06-11 21:38:00,82.3,77.7,30.06,East,84,0.0,4.0,86,0.00,,,0.00,Wunderground v.1.15,2013-06-12 01:38:00,
2013-06-11 21:43:00,82.2,77.6,30.06,East,83,0.0,1.0,86,0.00,,,0.00,Wunderground v.1.15,2013-06-12 01:43:00,
2013-06-11 21:49:00,82.1,77.1,30.06,SSW,210,0.0,3.0,85,0.00,,,0.00,Wunderground v.1.15,2013-06-12 01:49:00,
2013-06-11 21:54:00,82.1,77.1,30.06,SE,129,0.0,5.0,85,0.00,,,0.00,Wunderground v.1.15,2013-06-12 01:54:00,
2013-06-11 21:59:00,82.1,77.1,30.06,East,96,0.0,5.0,85,0.00,,,0.00,Wunderground v.1.15,2013-06-12 01:59:00,
2013-06-11 22:04:00,82.1,77.5,30.06,South,172,1.0,4.0,86,0.00,,,0.00,Wunderground v.1.15,2013-06-12 02:04:00,
2013-06-11 22:10:00,82.0,77.4,30.05,South,188,0.0,0.0,86,0.00,,,0.00,Wunderground v.1.15,2013-06-12 02:10:00,
2013-06-11 22:15:00,81.9,77.3,30.06,East,94,0.0,1.0,86,0.00,,,0.00,Wunderground v.1.15,2013-06-12 02:15:00,
2013-06-11 22:21:00,81.8,77.2,30.06,SE,129,0.0,1.0,86,0.00,,,0.00,Wunderground v.1.15,2013-06-12 02:21:00,
2013-06-11 22:27:00,81.8,77.2,30.06,SSW,208,0.0,1.0,86,0.00,,,0.00,Wunderground v.1.15,2013-06-12 02:27:00,
2013-06-11 22:32:00,81.8,77.2,30.06,SSW,210,0.0,1.0,86,0.00,,,0.00,Wunderground v.1.15,2013-06-12 02:32:00,
2013-06-11 22:38:00,81.7,77.1,30.06,East,98,0.0,1.0,86,0.00,,,0.00,Wunderground v.1.15,2013-06-12 02:38:00,
2013-06-11 22:43:00,81.7,77.1,30.06,East,97,0.0,0.0,86,0.00,,,0.00,Wunderground v.1.15,2013-06-12 02:43:00,
2013-06-11 22:49:00,81.7,77.1,30.06,East,98,0.0,0.0,86,0.00,,,0.00,Wunderground v.1.15,2013-06-12 02:49:00,
2013-06-11 22:54:00,81.6,77.0,30.06,ESE,108,0.0,0.0,86,0.00,,,0.00,Wunderground v.1.15,2013-06-12 02:54:00,
2013-06-11 23:00:00,81.6,77.0,30.06,ESE,112,0.0,0.0,86,0.00,,,0.00,Wunderground v.1.15,2013-06-12 03:00:00,
2013-06-11 23:06:00,81.7,77.1,30.05,East,96,1.0,4.0,86,0.00,,,0.00,Wunderground v.1.15,2013-06-12 03:06:00,
2013-06-11 23:11:00,81.8,77.2,30.05,SE,138,2.0,2.0,86,0.00,,,0.00,Wunderground v.1.15,2013-06-12 03:11:00,
2013-06-11 23:40:00,81.7,76.7,30.04,SE,129,4.0,4.0,85,0.00,,,0.00,Wunderground v.1.15,2013-06-12 03:40:00,
2013-06-11 23:45:00,81.7,77.1,30.04,East,98,0.0,4.0,86,0.00,,,0.00,Wunderground v.1.15,2013-06-12 03:45:00,
2013-06-11 23:50:00,81.7,77.1,30.04,ESE,117,5.0,6.0,86,0.00,,,0.00,Wunderground v.1.15,2013-06-12 03:50:00,
2013-06-11 23:55:00,81.6,77.0,30.04,East,84,2.0,6.0,86,0.00,,,0.00,Wunderground v.1.15,2013-06-12 03:55:00,